Time;durP1;ratioP1;P1;durP2;ratioP2;P2;SDS_P1;SDS_P2;PMS_P1;PMS_P2;Temp;Humidity;BMP_temperature;BMP_pressure;BME280_temperature;BME280_humidity;BME280_pressure;Samples;Min_cycle;Max_cycle;Signal;HPM_P1;HPM_P2
2024/01/13 00:02:13;;;;;;;6.05;5.15;;;6.30;99.90;;;;;;5114625;28;20100;-72
2024/01/13 00:04:39;;;;;;;5.32;4.55;;;6.40;99.90;;;;;;5109991;28;20028;-72
2024/01/13 00:07:04;;;;;;;5.03;4.53;;;6.40;99.90;;;;;;5114389;28;20606;-72
2024/01/13 00:09:30;;;;;;;9.25;4.63;;;6.40;99.90;;;;;;5114052;28;20026;-72
2024/01/13 00:11:55;;;;;;;4.45;4.25;;;6.40;99.90;;;;;;5114666;28;20066;-73
2024/01/13 00:14:21;;;;;;;4.53;4.20;;;6.40;99.90;;;;;;5114343;28;20461;-73
2024/01/13 00:16:46;;;;;;;7.00;5.18;;;6.30;99.90;;;;;;5114567;28;20388;-72
2024/01/13 00:19:12;;;;;;;4.32;4.03;;;6.40;99.90;;;;;;5114802;28;20109;-73
2024/01/13 00:21:37;;;;;;;4.75;4.32;;;6.40;99.90;;;;;;5114589;28;20063;-73
2024/01/13 00:24:04;;;;;;;6.68;4.40;;;6.40;99.90;;;;;;5114236;28;20046;-73
2024/01/13 00:26:29;;;;;;;5.60;4.40;;;6.40;99.90;;;;;;5114518;28;20032;-72
2024/01/13 00:28:55;;;;;;;6.78;4.07;;;6.40;99.90;;;;;;5114390;28;20449;-73
2024/01/13 00:31:20;;;;;;;4.60;4.00;;;6.50;99.90;;;;;;5096000;28;20059;-73
2024/01/13 00:33:46;;;;;;;4.32;3.90;;;6.50;99.90;;;;;;5114297;28;20049;-73
2024/01/13 00:36:12;;;;;;;9.25;4.68;;;6.50;99.90;;;;;;5114031;28;20028;-73
2024/01/13 00:38:38;;;;;;;6.45;4.07;;;6.50;99.90;;;;;;5114160;28;20384;-72
2024/01/13 00:41:07;;;;;;;5.32;4.30;;;6.50;99.90;;;;;;5114018;28;20041;-72
2024/01/13 00:43:33;;;;;;;6.22;4.22;;;6.50;99.90;;;;;;5114037;28;20070;-72
2024/01/13 00:45:59;;;;;;;8.13;4.50;;;6.50;99.90;;;;;;5113935;28;20358;-72
2024/01/13 00:48:24;;;;;;;6.88;4.40;;;6.50;99.90;;;;;;5113693;28;20031;-72
2024/01/13 00:50:50;;;;;;;8.32;4.32;;;6.50;99.90;;;;;;5094570;28;20028;-73
2024/01/13 00:53:15;;;;;;;4.93;4.20;;;6.40;99.90;;;;;;5114092;28;20107;-72
2024/01/13 00:55:41;;;;;;;7.00;4.15;;;6.40;99.90;;;;;;5113976;28;20036;-73
2024/01/13 00:58:07;;;;;;;4.25;3.90;;;6.40;99.90;;;;;;5114047;28;20028;-72
2024/01/13 01:00:32;;;;;;;7.00;3.80;;;6.40;99.90;;;;;;5113543;28;20020;-72
2024/01/13 01:02:58;;;;;;;5.60;4.15;;;6.40;99.90;;;;;;5097119;28;20059;-73
2024/01/13 01:05:23;;;;;;;7.47;4.50;;;6.30;99.90;;;;;;5094778;28;20043;-73
2024/01/13 01:07:49;;;;;;;4.18;3.80;;;6.20;99.90;;;;;;5113318;28;20024;-72
2024/01/13 01:10:29;;;;;;;8.95;4.20;;;6.10;99.90;;;;;;5085336;28;20440;-73
2024/01/13 01:12:55;;;;;;;4.82;3.97;;;6.10;99.90;;;;;;5073281;28;20357;-71
2024/01/13 01:15:20;;;;;;;6.00;5.40;;;6.00;99.90;;;;;;5083047;28;20043;-72
2024/01/13 01:17:46;;;;;;;5.05;4.55;;;5.90;99.90;;;;;;5079387;28;20027;-72
2024/01/13 01:20:12;;;;;;;4.80;4.07;;;5.80;99.90;;;;;;5075858;28;20032;-71
2024/01/13 01:22:37;;;;;;;5.43;4.10;;;5.80;99.90;;;;;;5086225;28;20029;-73
2024/01/13 01:25:03;;;;;;;3.97;3.67;;;5.70;99.90;;;;;;5073842;28;20366;-72
2024/01/13 01:27:29;;;;;;;5.65;3.70;;;5.70;99.90;;;;;;5081810;28;20346;-72
2024/01/13 01:29:55;;;;;;;7.45;3.78;;;5.60;99.90;;;;;;5081080;28;20391;-73
2024/01/13 01:32:20;;;;;;;5.70;3.80;;;5.60;99.90;;;;;;5074665;28;20032;-72
2024/01/13 01:34:46;;;;;;;4.32;3.78;;;5.50;99.90;;;;;;5085827;28;20487;-73
2024/01/13 01:37:11;;;;;;;4.10;3.70;;;5.50;99.90;;;;;;5074958;28;20460;-72
2024/01/13 01:39:37;;;;;;;3.88;3.42;;;5.50;99.90;;;;;;5080451;28;20032;-72
2024/01/13 01:42:03;;;;;;;4.00;3.60;;;5.50;99.90;;;;;;5081682;28;20023;-72
2024/01/13 01:44:28;;;;;;;4.32;3.80;;;5.50;99.90;;;;;;5073524;28;20036;-72
2024/01/13 01:46:57;;;;;;;5.68;3.90;;;5.50;99.90;;;;;;5085706;28;20025;-72
2024/01/13 01:49:23;;;;;;;3.90;3.60;;;5.50;99.90;;;;;;5075771;28;20120;-73
2024/01/13 01:51:48;;;;;;;4.93;3.75;;;5.50;99.90;;;;;;5078544;28;20446;-72
2024/01/13 01:54:15;;;;;;;3.90;3.60;;;5.50;99.90;;;;;;5082856;28;20024;-72
2024/01/13 01:56:41;;;;;;;3.88;3.50;;;5.60;99.90;;;;;;5072164;28;20115;-72
2024/01/13 01:59:07;;;;;;;4.32;3.30;;;5.60;99.90;;;;;;5084060;28;20163;-73
2024/01/13 02:01:32;;;;;;;6.00;3.90;;;5.70;99.90;;;;;;5076859;28;20024;-72
2024/01/13 02:04:00;;;;;;;4.30;3.40;;;5.70;99.90;;;;;;5077064;28;20044;-72
2024/01/13 02:06:26;;;;;;;7.53;3.25;;;5.80;99.90;;;;;;5084446;28;20460;-72
2024/01/13 02:08:52;;;;;;;6.15;3.58;;;5.80;99.90;;;;;;5071778;28;20056;-72
2024/01/13 02:11:19;;;;;;;4.82;3.90;;;5.70;99.90;;;;;;5082662;28;20021;-72
2024/01/13 02:13:46;;;;;;;5.07;3.67;;;5.80;99.90;;;;;;5078537;28;20032;-73
2024/01/13 02:16:12;;;;;;;7.05;3.60;;;5.80;99.90;;;;;;5074664;28;20107;-73
2024/01/13 02:18:38;;;;;;;4.22;3.47;;;5.90;99.90;;;;;;5084813;28;20195;-73
2024/01/13 02:21:04;;;;;;;7.15;3.80;;;5.90;99.90;;;;;;5063585;28;20027;-73
2024/01/13 02:23:30;;;;;;;4.32;3.35;;;5.90;99.90;;;;;;5067380;28;20104;-73
2024/01/13 02:25:56;;;;;;;4.28;3.60;;;5.90;99.90;;;;;;5066204;28;20106;-73
2024/01/13 02:28:21;;;;;;;3.80;3.50;;;6.00;99.90;;;;;;5059837;28;20039;-73
2024/01/13 02:30:47;;;;;;;7.30;3.75;;;5.90;99.90;;;;;;5071034;28;20476;-72
2024/01/13 02:33:13;;;;;;;8.90;3.60;;;5.90;99.90;;;;;;5060470;28;20024;-73
2024/01/13 02:35:38;;;;;;;6.40;3.90;;;6.00;99.90;;;;;;5065669;28;20079;-72
2024/01/13 02:38:04;;;;;;;4.40;4.00;;;6.00;99.90;;;;;;5067177;28;20452;-72
2024/01/13 02:40:29;;;;;;;4.88;4.00;;;6.00;99.90;;;;;;5058514;28;20461;-73
2024/01/13 02:42:55;;;;;;;7.10;4.55;;;6.00;99.90;;;;;;5071506;28;20415;-73
2024/01/13 02:45:20;;;;;;;5.03;4.00;;;6.00;99.90;;;;;;5059778;28;20460;-73
2024/01/13 02:47:57;;;;;;;6.00;4.38;;;6.10;99.90;;;;;;5064657;28;20079;-73
2024/01/13 02:50:22;;;;;;;6.20;4.20;;;6.10;99.90;;;;;;5069581;28;20043;-73
2024/01/13 02:52:48;;;;;;;4.50;4.10;;;6.10;99.90;;;;;;5057977;28;20025;-73
2024/01/13 02:55:13;;;;;;;6.00;3.70;;;6.10;99.90;;;;;;5069481;28;20033;-72
2024/01/13 02:57:39;;;;;;;10.57;4.47;;;6.10;99.90;;;;;;5063514;28;20025;-73
2024/01/13 03:00:09;;;;;;;9.73;4.35;;;6.10;99.90;;;;;;5061821;28;20029;-72
2024/01/13 03:02:34;;;;;;;6.65;4.43;;;6.10;99.90;;;;;;5070975;28;20029;-73
2024/01/13 03:05:00;;;;;;;5.63;4.03;;;6.10;99.90;;;;;;5058132;28;20021;-74
2024/01/13 03:07:26;;;;;;;7.63;4.13;;;6.10;99.90;;;;;;5065786;28;20128;-73
2024/01/13 03:09:51;;;;;;;4.28;3.40;;;6.10;99.90;;;;;;5064453;28;20064;-73
2024/01/13 03:12:17;;;;;;;6.72;3.60;;;6.10;99.90;;;;;;5059677;28;20032;-73
2024/01/13 03:14:43;;;;;;;5.43;3.53;;;6.10;99.90;;;;;;5069366;28;20033;-72
2024/01/13 03:17:08;;;;;;;5.15;3.40;;;6.00;99.90;;;;;;5059033;28;20107;-72
2024/01/13 03:19:34;;;;;;;3.38;3.10;;;6.00;99.90;;;;;;5065412;28;20111;-72
2024/01/13 03:21:59;;;;;;;5.88;3.47;;;5.90;99.90;;;;;;5065800;28;20055;-73
2024/01/13 03:24:25;;;;;;;5.40;3.72;;;5.90;99.90;;;;;;5058571;28;20028;-72
2024/01/13 03:26:51;;;;;;;4.50;3.38;;;6.00;99.90;;;;;;5070327;28;20521;-73
2024/01/13 03:29:16;;;;;;;4.60;3.60;;;6.00;99.90;;;;;;5059972;28;20036;-72
2024/01/13 03:31:42;;;;;;;5.40;3.78;;;6.00;99.90;;;;;;5063502;28;20071;-73
2024/01/13 03:34:07;;;;;;;3.92;3.40;;;6.00;99.90;;;;;;5066570;28;20048;-73
2024/01/13 03:36:33;;;;;;;3.90;3.60;;;6.00;99.90;;;;;;5057192;28;20029;-73
2024/01/13 03:38:59;;;;;;;5.63;3.40;;;6.10;99.90;;;;;;5070441;28;20108;-72
2024/01/13 03:41:25;;;;;;;3.90;3.70;;;6.10;99.90;;;;;;5060863;28;20029;-73
2024/01/13 03:43:51;;;;;;;8.93;4.10;;;6.10;99.90;;;;;;5062893;28;20373;-73
2024/01/13 03:46:17;;;;;;;4.75;3.80;;;6.10;99.90;;;;;;5067514;28;20141;-73
2024/01/13 03:48:42;;;;;;;9.73;4.65;;;6.10;99.90;;;;;;5056807;28;20053;-73
2024/01/13 03:51:09;;;;;;;7.95;4.07;;;6.10;99.90;;;;;;5068627;28;20472;-71
2024/01/13 03:53:35;;;;;;;4.03;3.75;;;6.10;99.90;;;;;;5062052;28;20025;-73
2024/01/13 03:56:01;;;;;;;5.20;4.10;;;6.10;99.90;;;;;;5061353;28;20253;-72
2024/01/13 03:58:27;;;;;;;3.97;3.67;;;6.10;99.90;;;;;;5068871;28;20425;-71
2024/01/13 04:00:52;;;;;;;4.03;3.72;;;6.10;99.90;;;;;;5056833;28;20114;-72
2024/01/13 04:03:18;;;;;;;4.28;3.90;;;6.10;99.90;;;;;;5067000;28;20461;-72
2024/01/13 04:05:44;;;;;;;4.35;3.90;;;6.10;99.90;;;;;;5062247;28;20033;-72
2024/01/13 04:08:09;;;;;;;4.85;3.80;;;6.20;99.90;;;;;;5059701;28;20369;-72
2024/01/13 04:10:35;;;;;;;4.18;3.88;;;6.20;99.90;;;;;;5069345;28;20099;-72
2024/01/13 04:13:00;;;;;;;4.53;4.07;;;6.20;99.90;;;;;;5056489;28;20411;-71
2024/01/13 04:15:26;;;;;;;4.20;3.90;;;6.20;99.90;;;;;;5065786;28;20025;-72
2024/01/13 04:17:53;;;;;;;4.25;3.95;;;6.20;99.90;;;;;;5063827;28;20717;-72
2024/01/13 04:20:18;;;;;;;6.18;3.78;;;6.30;99.90;;;;;;5058331;28;20031;-72
2024/01/13 04:22:44;;;;;;;5.00;3.40;;;6.30;99.90;;;;;;5068091;28;20391;-72
2024/01/13 04:25:09;;;;;;;5.43;3.22;;;6.30;99.90;;;;;;5057828;28;20024;-72
2024/01/13 04:27:35;;;;;;;3.75;3.13;;;6.30;99.90;;;;;;5064081;28;20033;-71
2024/01/13 04:30:01;;;;;;;4.13;3.60;;;6.30;99.90;;;;;;5064620;28;20075;-72
2024/01/13 04:32:26;;;;;;;4.80;4.32;;;6.30;99.90;;;;;;5055568;28;20480;-72
2024/01/13 04:34:52;;;;;;;6.25;4.25;;;6.30;99.90;;;;;;5069196;28;20033;-72
2024/01/13 04:37:17;;;;;;;4.78;4.05;;;6.30;99.90;;;;;;5058990;28;20031;-72
2024/01/13 04:39:43;;;;;;;3.90;3.60;;;6.20;99.90;;;;;;5062934;28;20163;-71
2024/01/13 04:42:08;;;;;;;5.28;3.30;;;6.20;99.90;;;;;;5060645;28;20028;-71
2024/01/13 04:44:34;;;;;;;3.58;3.28;;;6.20;99.90;;;;;;5068784;28;20024;-72
2024/01/13 04:46:59;;;;;;;3.92;3.63;;;6.20;99.90;;;;;;5054889;28;20410;-73
2024/01/13 04:49:25;;;;;;;5.82;4.10;;;6.20;99.90;;;;;;5063876;28;20032;-72
2024/01/13 04:51:51;;;;;;;4.78;3.58;;;6.10;99.90;;;;;;5063260;28;20031;-72
2024/01/13 04:54:16;;;;;;;6.47;3.40;;;6.10;99.90;;;;;;5058300;28;20444;-72
2024/01/13 04:56:42;;;;;;;4.65;3.10;;;6.10;99.90;;;;;;5068229;28;20029;-73
2024/01/13 04:59:07;;;;;;;3.72;3.40;;;6.10;99.90;;;;;;5056854;28;20032;-72
2024/01/13 05:01:33;;;;;;;5.07;3.50;;;6.10;99.90;;;;;;5064203;28;20033;-72
2024/01/13 05:03:58;;;;;;;3.67;3.40;;;6.10;99.90;;;;;;5064242;28;20074;-72
2024/01/13 05:06:24;;;;;;;5.43;3.67;;;6.00;99.90;;;;;;5056716;28;20083;-71
2024/01/13 05:08:50;;;;;;;3.35;3.15;;;6.10;99.90;;;;;;5068747;28;20048;-71
2024/01/13 05:11:17;;;;;;;5.32;3.65;;;6.10;99.90;;;;;;5051994;28;20362;-71
2024/01/13 05:13:43;;;;;;;3.85;3.55;;;6.10;99.90;;;;;;5052527;28;20508;-72
2024/01/13 05:16:08;;;;;;;7.15;3.60;;;6.00;99.90;;;;;;5050782;28;20121;-72
2024/01/13 05:18:34;;;;;;;5.32;3.95;;;6.10;99.90;;;;;;5052168;28;20108;-71
2024/01/13 05:20:59;;;;;;;3.70;3.35;;;6.10;99.90;;;;;;5052956;28;20377;-71
2024/01/13 05:23:25;;;;;;;3.70;3.40;;;6.10;99.90;;;;;;5052410;28;20445;-72
2024/01/13 05:25:51;;;;;;;6.30;3.60;;;6.10;99.90;;;;;;5052291;28;20021;-72
2024/01/13 05:28:16;;;;;;;7.30;3.50;;;6.10;99.90;;;;;;5050668;28;20086;-72
2024/01/13 05:30:42;;;;;;;5.88;3.50;;;6.10;99.90;;;;;;5051877;28;20471;-72
2024/01/13 05:33:08;;;;;;;7.28;3.85;;;6.10;99.90;;;;;;5051958;28;20028;-72
2024/01/13 05:35:34;;;;;;;6.13;3.60;;;6.10;99.90;;;;;;5051765;28;20380;-72
2024/01/13 05:37:59;;;;;;;5.78;3.03;;;6.20;99.90;;;;;;5052109;28;20021;-72
2024/01/13 05:40:25;;;;;;;3.80;3.50;;;6.20;99.90;;;;;;5050316;28;20055;-72
2024/01/13 05:42:50;;;;;;;6.30;3.10;;;6.20;99.90;;;;;;5051874;28;20099;-73
2024/01/13 05:45:16;;;;;;;5.85;3.47;;;6.30;99.90;;;;;;5051789;28;20112;-73
2024/01/13 05:47:42;;;;;;;10.50;3.40;;;6.30;99.90;;;;;;5051793;28;20018;-72
2024/01/13 05:50:09;;;;;;;8.07;4.07;;;6.30;99.90;;;;;;5051689;28;20036;-72
2024/01/13 05:52:36;;;;;;;7.90;4.13;;;6.30;99.90;;;;;;5051821;28;20048;-72
2024/01/13 05:55:03;;;;;;;7.45;3.50;;;6.20;99.90;;;;;;5051576;28;20055;-72
2024/01/13 05:57:28;;;;;;;8.90;4.28;;;6.30;99.90;;;;;;5055488;28;20052;-72
2024/01/13 05:59:54;;;;;;;7.90;4.00;;;6.30;99.90;;;;;;5055034;28;20021;-71
2024/01/13 06:02:20;;;;;;;6.60;3.70;;;6.30;99.90;;;;;;5055799;28;20033;-71
2024/01/13 06:04:46;;;;;;;12.68;3.88;;;6.30;99.90;;;;;;5055430;28;20082;-71
2024/01/13 06:07:12;;;;;;;6.80;4.20;;;6.30;99.90;;;;;;5055242;28;20024;-72
2024/01/13 06:09:39;;;;;;;10.55;4.57;;;6.30;99.90;;;;;;5054999;28;20114;-72
2024/01/13 06:12:06;;;;;;;7.55;4.47;;;6.30;99.90;;;;;;5055354;28;20025;-71
2024/01/13 06:14:31;;;;;;;11.07;4.60;;;6.30;99.90;;;;;;5055590;28;20056;-71
2024/01/13 06:16:57;;;;;;;7.38;4.30;;;6.30;99.90;;;;;;5055180;28;20091;-71
2024/01/13 06:19:22;;;;;;;7.60;4.50;;;6.30;99.90;;;;;;5054738;28;20029;-71
2024/01/13 06:21:48;;;;;;;10.07;5.00;;;6.30;99.90;;;;;;5055115;28;20056;-71
2024/01/13 06:24:13;;;;;;;7.85;5.35;;;6.30;99.90;;;;;;5054596;28;20496;-71
2024/01/13 06:26:40;;;;;;;12.82;6.07;;;6.30;99.90;;;;;;5055197;28;20072;-71
2024/01/13 06:29:06;;;;;;;13.13;6.07;;;6.30;99.90;;;;;;5054982;28;20033;-72
2024/01/13 06:31:32;;;;;;;11.20;6.93;;;6.30;99.90;;;;;;5054948;28;20469;-71
2024/01/13 06:33:58;;;;;;;13.45;7.45;;;6.30;99.90;;;;;;5054855;28;20032;-72
2024/01/13 06:36:24;;;;;;;11.10;6.63;;;6.30;99.90;;;;;;5054937;28;20499;-72
2024/01/13 06:38:50;;;;;;;16.20;7.10;;;6.30;99.90;;;;;;5054910;28;20025;-73
2024/01/13 06:41:15;;;;;;;10.80;6.53;;;6.30;99.90;;;;;;5054831;28;20028;-73
2024/01/13 06:43:41;;;;;;;11.15;6.80;;;6.20;99.90;;;;;;5056451;28;20533;-72
2024/01/13 06:46:10;;;;;;;13.90;6.32;;;6.30;99.90;;;;;;5062591;28;20094;-74
2024/01/13 06:48:36;;;;;;;9.93;6.20;;;6.30;99.90;;;;;;5063427;28;20033;-71
2024/01/13 06:51:01;;;;;;;10.82;6.25;;;6.30;99.90;;;;;;5069668;28;20086;-72
2024/01/13 06:53:27;;;;;;;14.13;6.82;;;6.20;99.90;;;;;;5058004;28;20106;-72
2024/01/13 06:55:53;;;;;;;10.90;6.88;;;6.20;99.90;;;;;;5069402;28;20481;-72
2024/01/13 06:58:18;;;;;;;11.43;6.65;;;6.10;99.90;;;;;;5063243;28;20025;-72
2024/01/13 07:00:44;;;;;;;11.40;6.68;;;6.10;99.90;;;;;;5062443;28;20040;-72
2024/01/13 07:03:09;;;;;;;15.00;6.90;;;6.10;99.90;;;;;;5070223;28;20035;-71
2024/01/13 07:05:35;;;;;;;10.00;6.63;;;6.10;99.90;;;;;;5057418;28;20090;-71
2024/01/13 07:08:00;;;;;;;10.82;6.32;;;6.10;99.90;;;;;;5066714;28;20594;-71
2024/01/13 07:10:28;;;;;;;11.98;6.65;;;6.10;99.90;;;;;;5056093;28;20447;-71
2024/01/13 07:12:53;;;;;;;9.70;7.00;;;6.10;99.90;;;;;;5055316;28;20064;-71
2024/01/13 07:15:19;;;;;;;16.40;8.07;;;6.10;99.90;;;;;;5070502;28;20439;-71
2024/01/13 07:17:45;;;;;;;18.63;9.27;;;6.00;99.90;;;;;;5052572;28;20389;-72
2024/01/13 07:20:11;;;;;;;15.63;8.75;;;6.00;99.90;;;;;;5055405;28;20410;-72
2024/01/13 07:22:37;;;;;;;18.52;9.40;;;6.00;99.90;;;;;;5068710;28;20029;-73
2024/01/13 07:25:03;;;;;;;15.57;8.65;;;6.00;99.90;;;;;;5056012;28;20024;-73
2024/01/13 07:27:29;;;;;;;18.58;8.95;;;6.00;99.90;;;;;;5058969;28;20043;-73
2024/01/13 07:29:55;;;;;;;16.15;8.85;;;6.00;99.90;;;;;;5073849;28;20043;-72
2024/01/13 07:32:21;;;;;;;16.58;8.82;;;6.00;99.90;;;;;;5074457;28;20031;-73
2024/01/13 07:34:47;;;;;;;15.85;8.38;;;6.00;99.90;;;;;;5074107;28;20028;-73
2024/01/13 07:37:12;;;;;;;13.73;8.40;;;6.00;99.90;;;;;;5058744;28;20056;-72
2024/01/13 07:39:38;;;;;;;16.00;8.82;;;6.00;99.90;;;;;;5054065;28;20453;-71
2024/01/13 07:42:03;;;;;;;20.40;10.63;;;6.00;99.90;;;;;;5054256;28;20029;-72
2024/01/13 07:44:29;;;;;;;19.23;10.52;;;6.00;99.90;;;;;;5053801;28;20100;-73
2024/01/13 07:47:00;;;;;;;18.92;10.80;;;5.90;99.90;;;;;;5053328;28;20029;-72
2024/01/13 07:49:27;;;;;;;18.38;9.75;;;5.90;99.90;;;;;;5053682;28;20106;-73
2024/01/13 07:51:54;;;;;;;16.30;9.38;;;5.90;99.90;;;;;;5054116;28;20029;-73
2024/01/13 07:54:20;;;;;;;19.77;10.90;;;5.90;99.90;;;;;;5053830;28;20017;-72
2024/01/13 07:56:46;;;;;;;23.08;11.68;;;5.90;99.90;;;;;;5053393;28;20064;-72
2024/01/13 07:59:12;;;;;;;20.70;12.43;;;6.00;99.90;;;;;;5053790;28;20029;-72
2024/01/13 08:01:39;;;;;;;20.98;13.18;;;5.90;99.90;;;;;;5053670;28;20029;-73
2024/01/13 08:04:05;;;;;;;22.30;13.48;;;5.90;99.90;;;;;;5053448;28;20052;-72
2024/01/13 08:06:31;;;;;;;23.48;14.50;;;5.90;99.90;;;;;;5053175;28;20060;-72
2024/01/13 08:08:57;;;;;;;29.30;15.50;;;5.90;99.90;;;;;;5053268;28;20059;-72
2024/01/13 08:11:22;;;;;;;27.88;16.83;;;6.00;99.90;;;;;;5053451;28;20115;-72
2024/01/13 08:13:48;;;;;;;28.92;18.27;;;6.00;99.90;;;;;;5053229;28;20092;-71
2024/01/13 08:16:13;;;;;;;25.75;18.42;;;6.00;99.90;;;;;;5053048;28;20093;-71
2024/01/13 08:18:39;;;;;;;30.40;19.33;;;6.00;99.90;;;;;;5052863;28;20060;-72
2024/01/13 08:21:05;;;;;;;31.50;18.40;;;6.00;99.90;;;;;;5053184;28;20025;-72
2024/01/13 08:23:30;;;;;;;29.50;18.17;;;6.10;99.90;;;;;;5053317;28;20033;-72
2024/01/13 08:25:56;;;;;;;29.05;18.13;;;6.10;99.90;;;;;;5052975;28;20028;-73
2024/01/13 08:28:22;;;;;;;27.75;16.98;;;6.10;99.90;;;;;;5051853;28;20338;-72
2024/01/13 08:30:47;;;;;;;27.58;16.30;;;6.10;99.90;;;;;;5052960;28;20052;-72
2024/01/13 08:33:13;;;;;;;28.55;17.10;;;6.10;99.90;;;;;;5052769;28;20112;-73
2024/01/13 08:35:38;;;;;;;31.38;16.55;;;6.10;99.90;;;;;;5052873;28;20029;-72
2024/01/13 08:38:04;;;;;;;30.38;18.58;;;6.10;99.90;;;;;;5052974;28;20025;-72
2024/01/13 08:40:29;;;;;;;30.30;17.77;;;6.10;99.90;;;;;;5053250;28;20372;-72
2024/01/13 08:42:56;;;;;;;32.25;17.58;;;6.10;99.90;;;;;;5052880;28;20044;-72
2024/01/13 08:45:29;;;;;;;27.85;17.80;;;6.10;99.90;;;;;;5052920;28;20028;-72
2024/01/13 08:47:56;;;;;;;28.15;17.80;;;6.00;99.90;;;;;;5052760;28;20025;-72
2024/01/13 08:50:21;;;;;;;31.30;18.85;;;5.90;99.90;;;;;;5052690;28;20075;-72
2024/01/13 08:52:48;;;;;;;32.80;18.85;;;5.90;99.90;;;;;;5052576;28;20069;-72
2024/01/13 08:55:13;;;;;;;30.42;19.75;;;6.00;99.90;;;;;;5052900;28;20028;-73
2024/01/13 08:57:39;;;;;;;31.73;20.02;;;5.90;99.90;;;;;;5052883;28;20033;-73
2024/01/13 09:00:06;;;;;;;32.80;22.30;;;5.90;99.90;;;;;;5052802;28;20021;-72
2024/01/13 09:02:32;;;;;;;37.05;24.30;;;5.90;99.90;;;;;;5051842;28;20032;-72
2024/01/13 09:04:57;;;;;;;38.05;25.52;;;5.90;99.90;;;;;;5052799;28;20048;-72
2024/01/13 09:07:23;;;;;;;35.58;25.42;;;5.90;99.90;;;;;;5052731;28;20036;-72
2024/01/13 09:09:48;;;;;;;39.72;28.48;;;5.80;99.90;;;;;;5052362;28;20064;-72
2024/01/13 09:12:14;;;;;;;41.28;28.88;;;5.90;99.90;;;;;;5052144;28;20029;-72
2024/01/13 09:14:39;;;;;;;42.75;28.13;;;5.90;99.90;;;;;;5051745;28;20052;-73
2024/01/13 09:17:05;;;;;;;39.90;27.60;;;5.90;99.90;;;;;;5052304;28;20028;-72
2024/01/13 09:19:30;;;;;;;41.53;28.77;;;5.90;99.90;;;;;;5052422;28;20017;-73
2024/01/13 09:21:56;;;;;;;41.40;28.08;;;6.00;99.90;;;;;;5052180;28;20104;-72
2024/01/13 09:24:21;;;;;;;44.67;30.02;;;5.90;99.90;;;;;;5052114;28;20064;-72
2024/01/13 09:26:48;;;;;;;43.97;31.30;;;5.90;99.90;;;;;;5052488;28;20073;-72
2024/01/13 09:29:15;;;;;;;50.85;32.95;;;5.90;99.90;;;;;;5052477;28;20037;-72
2024/01/13 09:31:41;;;;;;;49.15;32.22;;;5.90;99.90;;;;;;5054860;28;20472;-72
2024/01/13 09:34:09;;;;;;;49.22;33.10;;;6.00;99.90;;;;;;5055605;28;20029;-72
2024/01/13 09:36:35;;;;;;;48.45;33.33;;;6.00;99.90;;;;;;5056085;28;20029;-72
2024/01/13 09:39:00;;;;;;;52.13;35.10;;;6.00;99.90;;;;;;5056239;28;20029;-72
2024/01/13 09:41:26;;;;;;;57.05;37.38;;;6.00;99.90;;;;;;5055539;28;20384;-72
2024/01/13 09:44:05;;;;;;;58.38;38.45;;;6.00;99.90;;;;;;5055666;28;20775;-72
2024/01/13 09:46:30;;;;;;;51.35;35.72;;;6.10;99.90;;;;;;5055954;28;20029;-72
2024/01/13 09:48:57;;;;;;;50.60;33.95;;;6.10;99.90;;;;;;5056120;28;20025;-72
2024/01/13 09:51:23;;;;;;;48.55;32.08;;;6.10;99.90;;;;;;5056007;28;20043;-72
2024/01/13 09:53:54;;;;;;;42.55;30.10;;;6.20;99.90;;;;;;5055876;28;20052;-72
2024/01/13 09:56:30;;;;;;;45.22;29.30;;;6.20;99.90;;;;;;5056291;28;20033;-72
2024/01/13 09:58:56;;;;;;;35.95;26.10;;;6.20;99.90;;;;;;5055683;28;20033;-73
2024/01/13 10:01:23;;;;;;;38.95;25.38;;;6.30;99.90;;;;;;5055384;28;20041;-72
2024/01/13 10:03:49;;;;;;;38.53;24.88;;;6.30;99.90;;;;;;5055957;28;20108;-72
2024/01/13 10:06:16;;;;;;;39.40;25.52;;;6.40;99.90;;;;;;5056326;28;20059;-72
2024/01/13 10:08:42;;;;;;;35.35;24.80;;;6.40;99.90;;;;;;5055783;28;20049;-73
2024/01/13 10:11:07;;;;;;;39.85;25.98;;;6.50;99.90;;;;;;5055894;28;20032;-72
2024/01/13 10:13:33;;;;;;;38.72;24.83;;;6.50;99.90;;;;;;5055866;28;20098;-73
2024/01/13 10:15:58;;;;;;;36.90;25.02;;;6.50;99.90;;;;;;5055467;28;20480;-72
2024/01/13 10:18:24;;;;;;;38.85;25.23;;;6.50;99.90;;;;;;5052267;28;20177;-72
2024/01/13 10:20:50;;;;;;;36.00;25.52;;;6.50;99.90;;;;;;5054825;28;20384;-72
2024/01/13 10:23:16;;;;;;;34.10;21.48;;;6.60;99.90;;;;;;5055268;28;20035;-72
2024/01/13 10:25:42;;;;;;;33.80;22.10;;;6.50;99.90;;;;;;5055202;28;20053;-72
2024/01/13 10:28:08;;;;;;;35.00;22.45;;;6.60;99.90;;;;;;5055402;28;20098;-73
2024/01/13 10:30:34;;;;;;;36.30;22.42;;;6.60;99.90;;;;;;5054759;28;20116;-73
2024/01/13 10:33:00;;;;;;;32.60;21.45;;;6.60;99.90;;;;;;5054954;28;20021;-72
2024/01/13 10:35:28;;;;;;;31.73;18.75;;;6.60;99.90;;;;;;5055292;28;20118;-72
2024/01/13 10:37:57;;;;;;;27.38;16.48;;;6.70;99.90;;;;;;5055469;28;20112;-72
2024/01/13 10:40:24;;;;;;;26.05;14.32;;;6.70;99.90;;;;;;5053325;28;20028;-72
2024/01/13 10:42:55;;;;;;;23.48;13.68;;;6.70;99.90;;;;;;5054441;28;20492;-72
2024/01/13 10:45:25;;;;;;;21.48;11.63;;;6.80;99.90;;;;;;5054956;28;20031;-72
2024/01/13 10:47:52;;;;;;;21.40;12.02;;;6.80;99.90;;;;;;5054923;28;20079;-73
2024/01/13 10:50:19;;;;;;;21.45;11.60;;;6.80;99.90;;;;;;5054432;28;20044;-72
2024/01/13 10:53:05;;;;;;;24.75;10.95;;;6.90;99.90;;;;;;5054707;28;20035;-72
2024/01/13 10:55:32;;;;;;;20.13;10.85;;;6.90;99.90;;;;;;5054822;28;20029;-72
2024/01/13 10:58:01;;;;;;;22.38;11.35;;;7.00;99.90;;;;;;5054847;28;20055;-72
2024/01/13 11:00:28;;;;;;;22.58;10.85;;;7.10;99.90;;;;;;5054556;28;20021;-73
2024/01/13 11:02:55;;;;;;;22.55;10.13;;;7.20;99.90;;;;;;5055037;28;20044;-71
2024/01/13 11:05:22;;;;;;;20.48;10.40;;;7.20;99.90;;;;;;5055112;28;20446;-71
2024/01/13 11:07:48;;;;;;;20.05;10.27;;;7.20;99.90;;;;;;5054791;28;20056;-71
2024/01/13 11:10:22;;;;;;;18.73;9.73;;;7.30;99.90;;;;;;5054360;28;20131;-71
2024/01/13 11:12:57;;;;;;;22.30;9.88;;;7.30;99.90;;;;;;5054542;28;20031;-71
2024/01/13 11:15:36;;;;;;;21.15;10.23;;;7.30;99.90;;;;;;5052169;28;20116;-71
2024/01/13 11:18:04;;;;;;;18.73;9.35;;;7.30;99.90;;;;;;5053771;28;20043;-72
2024/01/13 11:20:49;;;;;;;21.48;9.52;;;7.30;99.90;;;;;;5053954;28;20025;-72
2024/01/13 11:23:16;;;;;;;19.05;9.43;;;7.40;99.90;;;;;;5054333;28;20029;-72
2024/01/13 11:25:41;;;;;;;19.65;8.63;;;7.40;99.90;;;;;;5054411;28;20548;-72
2024/01/13 11:28:13;;;;;;;16.83;8.18;;;7.50;99.90;;;;;;5052028;28;20029;-72
2024/01/13 11:30:39;;;;;;;18.13;7.28;;;7.50;99.90;;;;;;5052965;28;20076;-72
2024/01/13 11:33:06;;;;;;;15.02;6.90;;;7.60;99.90;;;;;;5052938;28;20452;-72
2024/01/13 11:35:31;;;;;;;19.63;6.63;;;7.70;99.90;;;;;;5052824;28;20025;-72
2024/01/13 11:37:59;;;;;;;12.25;5.28;;;7.70;99.90;;;;;;5052935;28;20036;-72
2024/01/13 11:40:26;;;;;;;10.70;4.90;;;7.80;99.90;;;;;;5052814;28;20108;-72
2024/01/13 11:43:03;;;;;;;14.15;4.72;;;7.90;99.90;;;;;;5052469;28;20295;-72
2024/01/13 11:45:40;;;;;;;13.00;4.78;;;8.00;99.90;;;;;;5052602;28;20100;-72
2024/01/13 11:48:38;;;;;;;12.10;4.90;;;8.10;99.90;;;;;;5051325;28;20021;-72
2024/01/13 11:51:08;;;;;;;12.27;5.25;;;8.10;99.90;;;;;;5051100;28;20041;-72
2024/01/13 11:53:41;;;;;;;13.52;4.95;;;8.10;99.90;;;;;;5051483;28;20401;-72
2024/01/13 11:56:08;;;;;;;10.70;4.43;;;8.10;99.90;;;;;;5052306;28;20019;-72
2024/01/13 11:58:35;;;;;;;12.00;4.72;;;8.20;99.90;;;;;;5050436;28;20025;-72
2024/01/13 12:01:05;;;;;;;11.75;4.45;;;8.20;99.90;;;;;;5052326;28;20025;-71
2024/01/13 12:03:30;;;;;;;13.82;4.80;;;8.30;99.90;;;;;;5052103;28;20028;-72
2024/01/13 12:05:58;;;;;;;9.20;4.10;;;8.30;99.90;;;;;;5051956;28;20673;-72
2024/01/13 12:08:26;;;;;;;9.13;4.45;;;8.30;99.90;;;;;;5052141;28;20607;-72
2024/01/13 12:10:53;;;;;;;9.15;3.60;;;8.20;99.90;;;;;;5052750;28;20045;-72
2024/01/13 12:13:20;;;;;;;11.68;3.97;;;8.20;99.90;;;;;;5052300;28;20091;-72
2024/01/13 12:15:46;;;;;;;11.75;3.95;;;8.20;99.90;;;;;;5053268;28;20528;-72
2024/01/13 12:18:22;;;;;;;9.10;3.40;;;8.20;99.90;;;;;;5052171;28;20070;-71
2024/01/13 12:21:00;;;;;;;9.63;3.30;;;8.30;99.90;;;;;;5053259;28;20032;-72
2024/01/13 12:23:26;;;;;;;10.07;3.13;;;8.40;99.90;;;;;;5053450;28;20445;-72
2024/01/13 12:25:52;;;;;;;11.18;3.15;;;8.40;99.90;;;;;;5053316;28;20081;-72
2024/01/13 12:28:19;;;;;;;10.00;2.92;;;8.40;99.90;;;;;;5053429;28;20021;-72
2024/01/13 12:30:45;;;;;;;8.55;3.03;;;8.40;99.90;;;;;;5052960;28;20461;-72
2024/01/13 12:33:11;;;;;;;9.13;3.03;;;8.30;99.90;;;;;;5053523;28;20036;-72
2024/01/13 12:35:37;;;;;;;11.50;3.42;;;8.30;99.90;;;;;;5053186;28;20032;-72
2024/01/13 12:38:06;;;;;;;12.98;3.33;;;8.30;99.90;;;;;;5052965;28;20381;-72
2024/01/13 12:40:32;;;;;;;8.60;3.30;;;8.20;99.90;;;;;;5052969;28;20024;-72
2024/01/13 12:42:58;;;;;;;12.95;3.72;;;8.20;99.90;;;;;;5052921;28;20017;-72
2024/01/13 12:45:27;;;;;;;9.68;3.40;;;8.20;99.90;;;;;;5051017;28;20473;-72
2024/01/13 12:47:56;;;;;;;9.80;3.58;;;8.10;99.90;;;;;;5050459;28;20392;-72